Time;durP1;ratioP1;P1;durP2;ratioP2;P2;SDS_P1;SDS_P2;PMS_P1;PMS_P2;Temp;Humidity;BMP_temperature;BMP_pressure;BME280_temperature;BME280_humidity;BME280_pressure;Samples;Min_cycle;Max_cycle;Signal;HPM_P1;HPM_P2
2021/01/14 00:01:18;;;;;;;52.33;31.05;;;102.70;1894.40;;;;;;5072471;28;20029;-67
2021/01/14 00:03:51;;;;;;;46.72;27.75;;;102.70;1894.40;;;;;;5073468;28;20103;-69
2021/01/14 00:06:26;;;;;;;49.33;28.13;;;102.70;1894.40;;;;;;5073300;28;20064;-67
2021/01/14 00:08:57;;;;;;;48.85;27.27;;;102.70;1894.40;;;;;;5071638;28;20047;-67
2021/01/14 00:11:29;;;;;;;50.00;28.75;;;102.60;1894.40;;;;;;5073384;28;20090;-68
2021/01/14 00:14:00;;;;;;;45.13;25.80;;;102.60;1894.40;;;;;;5073447;28;20036;-67
2021/01/14 00:16:28;;;;;;;53.80;30.40;;;102.60;1894.40;;;;;;5073391;28;20052;-69
2021/01/14 00:19:00;;;;;;;55.00;30.15;;;102.60;1894.40;;;;;;5073326;28;20021;-67
2021/01/14 00:21:31;;;;;;;51.03;27.35;;;102.60;1894.40;;;;;;5073612;28;20381;-68
2021/01/14 00:24:03;;;;;;;54.83;30.52;;;102.60;1868.80;;;;;;5073334;28;20020;-69
2021/01/14 00:26:40;;;;;;;65.45;34.38;;;102.60;1868.80;;;;;;5073165;28;20024;-68
2021/01/14 00:29:11;;;;;;;68.85;35.75;;;102.60;1894.40;;;;;;5073236;28;20477;-69
2021/01/14 00:31:43;;;;;;;95.85;45.55;;;102.60;1894.40;;;;;;5073161;28;20025;-67
2021/01/14 00:34:15;;;;;;;95.35;48.15;;;102.60;1894.40;;;;;;5073314;28;20082;-68
2021/01/14 00:39:39;;;;;;;90.43;44.45;;;102.60;1894.40;;;;;;5073469;28;20035;-68
2021/01/14 00:42:17;;;;;;;100.97;50.28;;;102.60;1894.40;;;;;;5073031;28;20025;-68
2021/01/14 00:44:49;;;;;;;111.03;54.85;;;102.60;1894.40;;;;;;5073210;28;20399;-68
2021/01/14 00:47:20;;;;;;;125.95;62.28;;;102.60;1894.40;;;;;;5073175;28;20065;-68
2021/01/14 00:49:52;;;;;;;181.45;88.32;;;102.60;1894.40;;;;;;5073142;28;20044;-68
2021/01/14 00:52:23;;;;;;;164.10;84.80;;;102.60;1894.40;;;;;;5073389;28;20471;-68
2021/01/14 00:54:54;;;;;;;165.02;83.80;;;102.60;1894.40;;;;;;5073948;28;20046;-69
2021/01/14 00:57:26;;;;;;;186.05;96.35;;;102.70;1894.40;;;;;;5076642;28;20025;-68
2021/01/14 00:59:57;;;;;;;174.73;91.97;;;102.70;1894.40;;;;;;5076594;28;20033;-67
2021/01/14 01:02:29;;;;;;;165.00;82.95;;;102.70;1894.40;;;;;;5076366;28;20047;-69
2021/01/14 01:05:03;;;;;;;165.55;81.55;;;102.70;1894.40;;;;;;5076191;28;20045;-68
2021/01/14 01:07:35;;;;;;;133.60;70.80;;;102.70;1894.40;;;;;;5074555;28;20086;-68
2021/01/14 01:10:08;;;;;;;113.43;54.90;;;102.70;1894.40;;;;;;5076157;28;20047;-69
2021/01/14 01:12:39;;;;;;;102.25;49.13;;;102.70;1894.40;;;;;;5076390;28;20100;-68
2021/01/14 01:15:11;;;;;;;70.88;37.33;;;102.70;1894.40;;;;;;5076049;28;20029;-68
2021/01/14 01:17:43;;;;;;;72.22;36.80;;;102.80;1894.40;;;;;;5075668;28;20378;-69
2021/01/14 01:20:15;;;;;;;64.28;34.58;;;102.70;1894.40;;;;;;5076100;28;20025;-68
2021/01/14 01:22:46;;;;;;;54.05;28.75;;;102.80;1894.40;;;;;;5076134;28;20025;-68
2021/01/14 01:25:18;;;;;;;47.90;25.83;;;102.80;1894.40;;;;;;5076601;28;20054;-68
2021/01/14 01:27:49;;;;;;;45.03;25.00;;;102.80;1894.40;;;;;;5075964;28;20021;-68
2021/01/14 01:30:21;;;;;;;45.10;24.00;;;102.80;1894.40;;;;;;5075933;28;20112;-67
2021/01/14 01:32:53;;;;;;;50.33;26.88;;;102.80;1894.40;;;;;;5076238;28;20028;-69
2021/01/14 01:35:24;;;;;;;46.47;23.52;;;102.90;1971.20;;;;;;5075991;28;20103;-69
2021/01/14 01:37:52;;;;;;;44.90;24.27;;;102.90;1894.40;;;;;;5075880;28;20054;-69
2021/01/14 01:40:26;;;;;;;43.35;21.88;;;102.80;1894.40;;;;;;5075870;28;20490;-68
2021/01/14 01:42:58;;;;;;;38.70;21.60;;;102.80;1894.40;;;;;;5074064;28;20068;-69
2021/01/14 01:45:33;;;;;;;41.72;22.17;;;102.80;1868.80;;;;;;5074000;28;20367;-68
2021/01/14 01:48:05;;;;;;;40.30;21.42;;;102.70;1868.80;;;;;;5075357;28;20048;-68
2021/01/14 01:50:36;;;;;;;35.03;20.83;;;102.70;1868.80;;;;;;5075647;28;20066;-68
2021/01/14 01:53:09;;;;;;;37.53;21.05;;;102.70;1868.80;;;;;;5075400;28;20493;-67
2021/01/14 01:55:39;;;;;;;39.15;21.45;;;102.70;1868.80;;;;;;5075617;28;20020;-69
2021/01/14 01:58:06;;;;;;;35.65;19.85;;;102.70;1868.80;;;;;;5075826;28;20091;-68
2021/01/14 02:00:33;;;;;;;38.42;20.92;;;102.70;1868.80;;;;;;5073918;28;20029;-68
2021/01/14 02:02:59;;;;;;;40.80;19.88;;;102.60;1843.20;;;;;;5075621;28;20100;-68
2021/01/14 02:05:28;;;;;;;39.50;20.85;;;102.60;1843.20;;;;;;5075186;28;20575;-68
2021/01/14 02:08:31;;;;;;;39.83;20.60;;;102.60;1843.20;;;;;;5074633;28;20024;-68
2021/01/14 02:11:10;;;;;;;31.10;19.25;;;102.70;1817.60;;;;;;5075066;28;20032;-68
2021/01/14 02:13:54;;;;;;;35.88;19.65;;;102.60;1817.60;;;;;;5075094;28;20025;-68
2021/01/14 02:16:21;;;;;;;36.90;19.55;;;102.60;1817.60;;;;;;5075191;28;20054;-68
2021/01/14 02:18:53;;;;;;;45.67;21.38;;;102.60;1817.60;;;;;;5073287;28;20033;-68
2021/01/14 02:21:20;;;;;;;56.13;29.75;;;102.60;1817.60;;;;;;5072868;28;20036;-68
2021/01/14 02:24:14;;;;;;;115.28;54.85;;;102.60;1817.60;;;;;;5073810;28;20031;-68
2021/01/14 02:26:46;;;;;;;156.68;75.25;;;102.60;1817.60;;;;;;5073592;28;20095;-68
2021/01/14 02:29:18;;;;;;;184.60;87.35;;;102.60;1817.60;;;;;;5074077;28;20025;-68
2021/01/14 02:31:44;;;;;;;169.90;81.95;;;102.60;1817.60;;;;;;5071454;28;20012;-68
2021/01/14 02:34:16;;;;;;;163.15;77.55;;;102.60;1817.60;;;;;;5074025;28;20025;-68
2021/01/14 02:36:42;;;;;;;154.60;71.75;;;102.50;1817.60;;;;;;5074004;28;20465;-67
2021/01/14 02:39:08;;;;;;;166.30;79.10;;;102.60;1817.60;;;;;;5070436;28;20028;-68
2021/01/14 02:41:34;;;;;;;165.88;80.40;;;102.60;1817.60;;;;;;5073958;28;20416;-68
2021/01/14 02:44:04;;;;;;;139.68;71.25;;;102.60;1817.60;;;;;;5073658;28;20408;-68
2021/01/14 02:46:31;;;;;;;119.15;64.10;;;102.60;1817.60;;;;;;5074079;28;20032;-68
2021/01/14 02:49:07;;;;;;;138.00;70.32;;;102.60;1817.60;;;;;;5073415;28;20036;-68
2021/01/14 02:51:46;;;;;;;163.43;80.53;;;102.60;1817.60;;;;;;5073973;28;20021;-68
2021/01/14 02:54:14;;;;;;;148.85;74.82;;;102.60;1817.60;;;;;;5074190;28;20036;-68
2021/01/14 02:56:42;;;;;;;125.88;63.10;;;102.60;1817.60;;;;;;5074217;28;20028;-67
2021/01/14 02:59:13;;;;;;;105.30;57.10;;;102.60;1817.60;;;;;;5074480;28;20029;-68
2021/01/14 03:01:40;;;;;;;73.68;38.88;;;102.60;1792.00;;;;;;5074312;28;20024;-68
2021/01/14 03:04:06;;;;;;;54.35;28.25;;;102.60;1792.00;;;;;;5074378;28;20103;-68
2021/01/14 03:06:34;;;;;;;46.17;22.45;;;102.60;1817.60;;;;;;5074095;28;20198;-68
2021/01/14 03:09:03;;;;;;;37.30;19.63;;;102.60;1792.00;;;;;;5073802;28;20024;-68
2021/01/14 03:11:36;;;;;;;30.42;18.02;;;102.60;1792.00;;;;;;5073599;28;20416;-68
2021/01/14 03:14:08;;;;;;;29.23;16.55;;;102.60;1792.00;;;;;;5073184;28;20077;-68
2021/01/14 03:16:40;;;;;;;27.50;14.32;;;102.60;1792.00;;;;;;5074049;28;20032;-68
2021/01/14 03:19:11;;;;;;;25.55;13.60;;;102.60;1792.00;;;;;;5073975;28;20107;-69
2021/01/14 03:21:43;;;;;;;25.35;14.57;;;102.60;1766.40;;;;;;5073929;28;20031;-68
2021/01/14 03:24:14;;;;;;;19.80;12.23;;;102.60;1792.00;;;;;;5073744;28;20033;-69
2021/01/14 03:26:46;;;;;;;23.02;12.55;;;102.60;1792.00;;;;;;5072685;28;20027;-69
2021/01/14 03:29:17;;;;;;;22.67;12.68;;;102.60;1792.00;;;;;;5073879;28;20040;-69
2021/01/14 03:31:49;;;;;;;21.48;12.45;;;102.60;1792.00;;;;;;5073854;28;20474;-69
2021/01/14 03:34:20;;;;;;;23.92;12.52;;;102.60;1792.00;;;;;;5073088;28;20086;-69
2021/01/14 03:37:00;;;;;;;24.00;12.50;;;102.60;1792.00;;;;;;5073715;28;20060;-68
2021/01/14 03:39:32;;;;;;;21.10;11.13;;;102.60;1792.00;;;;;;5073702;28;20059;-68
2021/01/14 03:42:04;;;;;;;19.30;10.10;;;102.60;1792.00;;;;;;5073877;28;20028;-68
2021/01/14 03:44:35;;;;;;;21.25;10.75;;;102.60;1792.00;;;;;;5073542;28;20036;-68
2021/01/14 03:47:06;;;;;;;18.10;10.13;;;102.60;1792.00;;;;;;5072900;28;20036;-69
2021/01/14 03:49:38;;;;;;;17.88;10.07;;;102.50;1792.00;;;;;;5073597;28;20036;-69
2021/01/14 03:52:11;;;;;;;21.48;10.40;;;102.60;1792.00;;;;;;5073457;28;20115;-68
2021/01/14 03:54:44;;;;;;;24.30;10.70;;;102.60;1766.40;;;;;;5072195;28;20466;-69
2021/01/14 03:57:17;;;;;;;23.05;10.88;;;102.70;1766.40;;;;;;5073503;28;20023;-69
2021/01/14 03:59:48;;;;;;;20.42;10.68;;;102.70;1766.40;;;;;;5072373;28;20032;-69
2021/01/14 04:02:20;;;;;;;24.90;11.75;;;102.70;1766.40;;;;;;5073696;28;20059;-69
2021/01/14 04:04:52;;;;;;;24.90;10.88;;;102.80;1766.40;;;;;;5073289;28;20422;-69
2021/01/14 04:07:23;;;;;;;29.73;11.95;;;102.70;1740.80;;;;;;5073425;28;20032;-68
2021/01/14 04:09:54;;;;;;;31.13;12.00;;;102.70;1792.00;;;;;;5073467;28;20039;-69
2021/01/14 04:12:32;;;;;;;26.52;10.45;;;102.70;1766.40;;;;;;5072968;28;20027;-69
2021/01/14 04:15:03;;;;;;;22.05;10.88;;;102.70;1766.40;;;;;;5073267;28;20029;-68
2021/01/14 04:17:35;;;;;;;27.98;12.85;;;102.70;1766.40;;;;;;5073265;28;20025;-69
2021/01/14 04:20:07;;;;;;;37.75;10.88;;;102.70;1817.60;;;;;;5073433;28;20032;-70
2021/01/14 04:22:41;;;;;;;32.15;11.10;;;102.80;1817.60;;;;;;5073419;28;20378;-69
2021/01/14 04:25:13;;;;;;;25.90;9.60;;;102.90;1792.00;;;;;;5073613;28;20029;-69
2021/01/14 04:27:47;;;;;;;20.15;9.38;;;102.80;1766.40;;;;;;5073222;28;20021;-69
2021/01/14 04:30:19;;;;;;;21.45;9.45;;;102.80;1766.40;;;;;;5075061;28;20071;-69
2021/01/14 04:32:58;;;;;;;18.98;8.20;;;102.80;1766.40;;;;;;5077161;28;20432;-69
2021/01/14 04:35:32;;;;;;;22.10;8.10;;;102.80;1740.80;;;;;;5077180;28;20432;-69
2021/01/14 04:38:04;;;;;;;18.97;7.57;;;102.90;1740.80;;;;;;5076665;28;20021;-69
2021/01/14 04:40:35;;;;;;;15.45;7.68;;;102.90;1740.80;;;;;;5076856;28;20025;-69
2021/01/14 04:43:10;;;;;;;19.08;8.07;;;102.90;1740.80;;;;;;5077180;28;20055;-69
2021/01/14 04:45:39;;;;;;;;;;;102.90;1740.80;;;;;;5077259;28;20078;-69
2021/01/14 04:48:22;;;;;;;19.90;8.45;;;102.90;1740.80;;;;;;5076635;28;19927;-69
2021/01/14 04:50:52;;;;;;;16.20;7.97;;;102.90;1740.80;;;;;;5076641;28;20079;-69
2021/01/14 04:53:25;;;;;;;18.08;8.95;;;102.90;1740.80;;;;;;5076708;28;20023;-69
2021/01/14 04:55:59;;;;;;;20.15;8.75;;;102.90;1740.80;;;;;;5076474;28;20105;-69
2021/01/14 04:58:34;;;;;;;18.23;8.43;;;102.90;1740.80;;;;;;5077031;28;20023;-69
2021/01/14 05:01:04;;;;;;;;;;;102.80;1740.80;;;;;;5076947;28;20474;-69
2021/01/14 05:03:38;;;;;;;40.97;10.00;;;102.80;1766.40;;;;;;5076487;28;19904;-69
2021/01/14 05:06:21;;;;;;;27.65;9.88;;;102.80;1766.40;;;;;;5076200;28;20082;-69
2021/01/14 05:09:07;;;;;;;20.13;9.90;;;102.80;1766.40;;;;;;5076466;28;20032;-69
2021/01/14 05:11:57;;;;;;;22.52;9.98;;;102.80;1766.40;;;;;;5076333;28;20500;-69
2021/01/14 05:14:28;;;;;;;20.58;9.52;;;102.80;1740.80;;;;;;5076411;28;20357;-69
2021/01/14 05:17:01;;;;;;;18.73;10.07;;;102.80;1766.40;;;;;;5076373;28;20048;-69
2021/01/14 05:19:32;;;;;;;18.75;10.85;;;102.80;1766.40;;;;;;5076360;28;20028;-69
2021/01/14 05:22:09;;;;;;;23.48;10.88;;;102.70;1740.80;;;;;;5074811;28;20025;-69
2021/01/14 05:25:00;;;;;;;25.52;11.27;;;102.70;1740.80;;;;;;5074555;28;20046;-69
2021/01/14 05:27:32;;;;;;;20.80;10.38;;;102.70;1766.40;;;;;;5076037;28;20047;-69
2021/01/14 05:30:05;;;;;;;19.77;9.80;;;102.70;1766.40;;;;;;5076031;28;20378;-69
2021/01/14 05:32:38;;;;;;;19.48;10.60;;;102.70;1766.40;;;;;;5076091;28;20056;-70
2021/01/14 05:35:27;;;;;;;22.42;11.73;;;102.70;1766.40;;;;;;5075957;28;20025;-69
2021/01/14 05:38:05;;;;;;;20.10;9.85;;;102.70;1740.80;;;;;;5074612;28;20025;-69
2021/01/14 05:41:10;;;;;;;26.45;11.30;;;102.70;1740.80;;;;;;5075376;28;20071;-69
2021/01/14 05:43:32;;;;;;;21.70;10.93;;;102.80;1740.80;;;;;;5075636;28;20082;-69
2021/01/14 05:46:18;;;;;;;30.60;13.18;;;102.70;1740.80;;;;;;5076083;28;20025;-69
2021/01/14 05:48:51;;;;;;;26.60;12.13;;;102.70;1740.80;;;;;;5075423;28;20047;-69
2021/01/14 05:51:31;;;;;;;29.42;13.25;;;102.70;1715.20;;;;;;5075679;28;20017;-69
2021/01/14 05:54:17;;;;;;;24.63;12.65;;;102.70;1740.80;;;;;;5075476;28;20028;-69
2021/01/14 05:56:50;;;;;;;24.98;14.27;;;102.70;1740.80;;;;;;5074392;28;20467;-70
2021/01/14 05:59:37;;;;;;;52.15;22.98;;;102.70;1740.80;;;;;;5075604;28;20155;-69
2021/01/14 06:02:08;;;;;;;103.35;58.65;;;102.70;1740.80;;;;;;5074772;28;20024;-69
2021/01/14 06:04:40;;;;;;;98.38;54.17;;;102.70;1740.80;;;;;;5075291;28;20028;-69
2021/01/14 06:07:15;;;;;;;98.80;48.67;;;102.80;1740.80;;;;;;5075333;28;20025;-69
2021/01/14 06:09:45;;;;;;;;;;;102.80;1715.20;;;;;;5075475;28;20056;-69
2021/01/14 06:12:17;;;;;;;78.15;44.42;;;102.80;1715.20;;;;;;5075077;28;19905;-69
2021/01/14 06:14:48;;;;;;;54.03;31.23;;;102.80;1715.20;;;;;;5075250;28;20100;-69
2021/01/14 06:17:30;;;;;;;63.72;36.40;;;102.80;1715.20;;;;;;5074554;28;20024;-69
2021/01/14 06:20:06;;;;;;;84.85;47.72;;;102.80;1715.20;;;;;;5075027;28;20027;-68
2021/01/14 06:22:35;;;;;;;92.20;45.72;;;102.80;1715.20;;;;;;5074385;28;20041;-68
2021/01/14 06:25:04;;;;;;;134.43;59.28;;;102.70;1715.20;;;;;;5074488;28;20107;-68
2021/01/14 06:27:32;;;;;;;104.63;47.00;;;102.80;1740.80;;;;;;5074800;28;20039;-68
2021/01/14 06:30:05;;;;;;;83.18;37.75;;;102.80;1715.20;;;;;;5073294;28;20048;-68
2021/01/14 06:32:35;;;;;;;81.22;34.58;;;102.80;1715.20;;;;;;5074839;28;20035;-68
2021/01/14 06:35:02;;;;;;;49.78;25.73;;;102.90;1715.20;;;;;;5074608;28;20058;-68
2021/01/14 06:37:37;;;;;;;44.28;24.52;;;102.90;1689.60;;;;;;5074774;28;20059;-69
2021/01/14 06:40:06;;;;;;;;;;;102.90;1689.60;;;;;;5074921;28;20021;-69
2021/01/14 06:42:40;;;;;;;54.85;21.90;;;102.90;1715.20;;;;;;5074667;28;19908;-69
2021/01/14 06:45:14;;;;;;;33.88;18.05;;;102.90;1689.60;;;;;;5074768;28;20025;-68
2021/01/14 06:48:03;;;;;;;42.90;22.65;;;102.90;1689.60;;;;;;5073083;28;20031;-71
2021/01/14 06:50:43;;;;;;;66.97;38.10;;;102.90;1715.20;;;;;;5074252;28;20032;-71
2021/01/14 06:53:26;;;;;;;86.53;50.85;;;102.90;1689.60;;;;;;5074072;28;20099;-71
2021/01/14 06:56:00;;;;;;;96.32;50.65;;;102.90;1689.60;;;;;;5074336;28;20028;-71
2021/01/14 06:58:31;;;;;;;;;;;103.00;1689.60;;;;;;5073534;28;20081;-72
2021/01/14 07:01:04;;;;;;;67.00;41.30;;;103.00;1689.60;;;;;;5074414;28;19904;-71
2021/01/14 07:03:56;;;;;;;70.38;39.42;;;103.00;1664.00;;;;;;5074470;28;20419;-72
2021/01/14 07:06:40;;;;;;;67.85;41.85;;;103.00;1689.60;;;;;;5072552;28;20086;-71
2021/01/14 07:09:18;;;;;;;60.40;35.25;;;103.00;1664.00;;;;;;5074193;28;20036;-72
2021/01/14 07:11:54;;;;;;;69.47;32.58;;;103.00;1689.60;;;;;;5074234;28;20386;-72
2021/01/14 07:14:31;;;;;;;65.50;34.08;;;103.00;1689.60;;;;;;5073804;28;20029;-71
2021/01/14 07:17:12;;;;;;;101.20;54.30;;;103.00;1689.60;;;;;;5073927;28;20021;-72
2021/01/14 07:19:43;;;;;;;101.82;50.15;;;103.10;1689.60;;;;;;5074338;28;20183;-71
2021/01/14 07:22:16;;;;;;;56.55;28.90;;;103.10;1689.60;;;;;;5072628;28;20032;-72
2021/01/14 07:24:49;;;;;;;40.65;22.30;;;103.10;1689.60;;;;;;5074016;28;20534;-71
2021/01/14 07:27:21;;;;;;;47.15;20.45;;;103.10;1689.60;;;;;;5073768;28;20536;-71
2021/01/14 07:29:55;;;;;;;25.40;15.35;;;103.20;1689.60;;;;;;5073956;28;20040;-71
2021/01/14 07:33:06;;;;;;;33.58;15.32;;;103.20;1689.60;;;;;;5073898;28;20032;-71
2021/01/14 07:35:50;;;;;;;54.60;22.30;;;103.20;1689.60;;;;;;5073927;28;20028;-71
2021/01/14 07:38:21;;;;;;;75.35;28.90;;;103.20;1689.60;;;;;;5073499;28;20022;-72
2021/01/14 07:40:55;;;;;;;67.70;30.75;;;103.20;1689.60;;;;;;5072494;28;20032;-71
2021/01/14 07:43:33;;;;;;;88.70;37.67;;;103.20;1689.60;;;;;;5073828;28;20024;-69
2021/01/14 07:46:20;;;;;;;72.63;27.90;;;103.20;1715.20;;;;;;5073819;28;20090;-72
2021/01/14 07:48:53;;;;;;;38.40;17.85;;;103.20;1715.20;;;;;;5073522;28;20029;-72
2021/01/14 07:51:42;;;;;;;33.40;14.27;;;103.20;1715.20;;;;;;5073776;28;20086;-68
2021/01/14 07:54:12;;;;;;;32.60;15.60;;;103.20;1766.40;;;;;;5069860;28;20032;-68
2021/01/14 07:57:02;;;;;;;38.50;18.20;;;103.30;1740.80;;;;;;5072654;28;20032;-69
2021/01/14 07:59:33;;;;;;;242.35;111.93;;;103.30;1740.80;;;;;;5072718;28;20535;-71
2021/01/14 08:02:11;;;;;;;140.85;82.85;;;103.30;1740.80;;;;;;5072328;28;20028;-67
2021/01/14 08:04:52;;;;;;;263.50;152.77;;;103.30;1740.80;;;;;;5073324;28;20120;-70
2021/01/14 08:07:25;;;;;;;150.68;87.80;;;103.30;1766.40;;;;;;5075493;28;20024;-69
2021/01/14 08:09:57;;;;;;;125.50;72.88;;;103.30;1766.40;;;;;;5076376;28;20036;-69
2021/01/14 08:12:32;;;;;;;111.60;60.35;;;103.30;1766.40;;;;;;5076317;28;20460;-70
2021/01/14 08:15:04;;;;;;;116.07;62.53;;;103.30;1766.40;;;;;;5076349;28;20378;-71
2021/01/14 08:17:36;;;;;;;107.90;53.03;;;103.30;1766.40;;;;;;5076257;28;20070;-69
2021/01/14 08:20:19;;;;;;;110.00;48.55;;;103.30;1766.40;;;;;;5076350;28;20471;-69
2021/01/14 08:22:50;;;;;;;151.23;55.17;;;103.30;1792.00;;;;;;5076300;28;20067;-69
2021/01/14 08:25:22;;;;;;;131.55;47.92;;;103.30;1766.40;;;;;;5076210;28;20059;-69
2021/01/14 08:28:08;;;;;;;144.60;53.67;;;103.30;1792.00;;;;;;5075982;28;20033;-69
2021/01/14 08:30:46;;;;;;;121.28;42.38;;;103.30;1792.00;;;;;;5076348;28;20381;-70
2021/01/14 08:33:24;;;;;;;97.60;41.25;;;103.30;1792.00;;;;;;5075724;28;20482;-69
2021/01/14 08:36:02;;;;;;;106.22;43.58;;;128.00;1817.60;;;;;;5076063;28;20025;-70
2021/01/14 08:38:30;;;;;;;107.28;47.30;;;128.00;1817.60;;;;;;5075687;28;20473;-69
2021/01/14 08:41:01;;;;;;;149.60;54.03;;;128.00;1792.00;;;;;;5075754;28;20044;-69
2021/01/14 08:43:43;;;;;;;91.72;38.22;;;128.00;1792.00;;;;;;5075050;28;20039;-68
2021/01/14 08:46:09;;;;;;;108.93;40.45;;;128.00;1766.40;;;;;;5072115;28;20032;-71
2021/01/14 08:48:35;;;;;;;97.72;37.60;;;128.00;1766.40;;;;;;5074798;28;20051;-68
2021/01/14 08:51:05;;;;;;;106.68;32.95;;;128.00;1766.40;;;;;;5075230;28;20107;-68
2021/01/14 08:53:37;;;;;;;71.53;23.45;;;128.00;1740.80;;;;;;5070524;28;20072;-69
2021/01/14 08:56:23;;;;;;;76.80;24.42;;;128.00;1715.20;;;;;;5075039;28;20031;-69
2021/01/14 08:58:50;;;;;;;80.57;23.20;;;128.00;1740.80;;;;;;5072865;28;20031;-70
2021/01/14 09:01:32;;;;;;;113.70;30.92;;;128.00;1740.80;;;;;;5072381;28;20047;-71
2021/01/14 09:04:00;;;;;;;108.00;28.80;;;128.00;1740.80;;;;;;5074383;28;20413;-69
2021/01/14 09:06:37;;;;;;;119.28;30.25;;;128.00;1740.80;;;;;;5055615;28;20060;-68
2021/01/14 09:09:05;;;;;;;110.78;27.67;;;128.00;1715.20;;;;;;5072630;28;20043;-70
2021/01/14 09:11:33;;;;;;;145.98;29.15;;;128.00;1740.80;;;;;;5075098;28;20082;-67
2021/01/14 09:14:09;;;;;;;148.02;32.20;;;128.00;1740.80;;;;;;5074220;28;20037;-70
2021/01/14 09:16:37;;;;;;;110.80;30.05;;;128.00;1740.80;;;;;;5073657;28;20028;-69
2021/01/14 09:19:12;;;;;;;91.10;30.40;;;128.00;1740.80;;;;;;5073574;28;20025;-71
2021/01/14 09:21:38;;;;;;;;;;;128.10;1740.80;;;;;;5073038;28;20512;-70
2021/01/14 09:24:12;;;;;;;94.00;21.30;;;128.10;1766.40;;;;;;5074088;28;19909;-70
2021/01/14 09:26:38;;;;;;;66.57;20.67;;;128.10;1766.40;;;;;;5074334;28;20028;-70
2021/01/14 09:29:11;;;;;;;61.35;19.75;;;128.10;1766.40;;;;;;5073607;28;20028;-69
2021/01/14 09:31:41;;;;;;;66.18;24.02;;;128.10;1766.40;;;;;;5073200;28;20031;-69
2021/01/14 09:34:13;;;;;;;56.55;22.33;;;128.00;1792.00;;;;;;5075384;28;20082;-70
2021/01/14 09:36:45;;;;;;;67.68;30.95;;;128.00;1792.00;;;;;;5076057;28;20101;-69
2021/01/14 09:39:17;;;;;;;73.68;36.00;;;128.00;1792.00;;;;;;5075237;28;20199;-72
2021/01/14 09:41:54;;;;;;;66.95;35.63;;;128.00;1792.00;;;;;;5074548;28;20021;-71
2021/01/14 09:44:32;;;;;;;73.60;41.45;;;128.20;1792.00;;;;;;5075699;28;20049;-70
2021/01/14 09:47:04;;;;;;;81.35;42.53;;;128.50;1792.00;;;;;;5075723;28;20028;-71
2021/01/14 09:49:35;;;;;;;92.82;49.03;;;128.70;1766.40;;;;;;5075311;28;20036;-71
2021/01/14 09:52:07;;;;;;;187.40;90.00;;;153.60;1740.80;;;;;;5075661;28;20428;-70
2021/01/14 09:54:39;;;;;;;146.52;75.65;;;153.80;1740.80;;;;;;5074270;28;20363;-71
2021/01/14 09:57:12;;;;;;;96.85;50.55;;;154.00;1715.20;;;;;;5075216;28;20034;-71
2021/01/14 09:59:47;;;;;;;63.05;32.63;;;154.10;1715.20;;;;;;5075450;28;20111;-71
2021/01/14 10:02:24;;;;;;;55.80;28.23;;;154.20;1689.60;;;;;;5075498;28;20020;-71
2021/01/14 10:05:13;;;;;;;52.83;25.90;;;154.10;1715.20;;;;;;5073855;28;20050;-71
2021/01/14 10:07:54;;;;;;;46.85;24.38;;;154.20;1689.60;;;;;;5075048;28;20024;-71
2021/01/14 10:10:28;;;;;;;49.33;25.65;;;154.10;1689.60;;;;;;5075156;28;20051;-70
2021/01/14 10:13:00;;;;;;;43.35;24.60;;;154.10;1689.60;;;;;;5075269;28;20158;-71
2021/01/14 10:15:34;;;;;;;45.67;24.98;;;154.10;1689.60;;;;;;5075376;28;20135;-71
2021/01/14 10:18:24;;;;;;;39.63;22.73;;;154.00;1689.60;;;;;;5075397;28;20016;-71
2021/01/14 10:21:04;;;;;;;46.97;25.73;;;154.00;1715.20;;;;;;5075238;28;20037;-71
2021/01/14 10:23:35;;;;;;;42.03;24.75;;;153.90;1715.20;;;;;;5075134;28;20035;-71
2021/01/14 10:26:07;;;;;;;40.65;24.17;;;153.90;1715.20;;;;;;5075051;28;20055;-71
2021/01/14 10:28:47;;;;;;;62.83;34.50;;;154.00;1715.20;;;;;;5074325;28;20352;-71
2021/01/14 10:31:35;;;;;;;111.80;57.70;;;154.10;1715.20;;;;;;5074927;28;20414;-71
2021/01/14 10:34:08;;;;;;;85.07;44.90;;;154.20;1715.20;;;;;;5073784;28;20028;-71
2021/01/14 10:36:48;;;;;;;94.25;53.72;;;154.20;1715.20;;;;;;5074843;28;20378;-71
2021/01/14 10:39:20;;;;;;;83.32;49.42;;;154.30;1689.60;;;;;;5074551;28;20033;-71
2021/01/14 10:41:51;;;;;;;77.90;44.92;;;154.30;1715.20;;;;;;5074670;28;20112;-70
2021/01/14 10:44:24;;;;;;;55.47;34.35;;;154.30;1689.60;;;;;;5074623;28;20040;-72
2021/01/14 10:46:55;;;;;;;50.53;29.25;;;154.30;1689.60;;;;;;5074662;28;20472;-71
2021/01/14 10:49:32;;;;;;;42.17;25.00;;;154.30;1715.20;;;;;;5074479;28;20036;-71
2021/01/14 10:52:12;;;;;;;37.05;21.75;;;154.40;1715.20;;;;;;5074618;28;20025;-71
2021/01/14 10:54:59;;;;;;;47.95;17.15;;;154.50;1689.60;;;;;;5074349;28;20021;-72
2021/01/14 11:08:28;;;;;;;38.17;19.13;;;154.50;1715.20;;;;;;5083184;28;20146;-72
2021/01/14 11:11:15;;;;;;;63.53;27.60;;;179.20;1715.20;;;;;;5094356;28;20031;-71
2021/01/14 13:53:42;;;;;;;46.53;26.38;;;153.90;1587.20;;;;;;5368242;22;20071;-67
2021/01/14 13:56:07;;;;;;;26.48;18.75;;;154.00;1587.20;;;;;;5091519;28;20032;-71
2021/01/14 13:58:34;;;;;;;32.95;23.25;;;154.00;1587.20;;;;;;5093591;28;20522;-72
2021/01/14 14:01:00;;;;;;;42.15;24.85;;;154.00;1587.20;;;;;;5093984;28;20020;-72
2021/01/14 14:03:26;;;;;;;74.65;34.72;;;153.90;1587.20;;;;;;5092511;28;20020;-70
2021/01/14 14:05:51;;;;;;;46.13;25.35;;;154.00;1587.20;;;;;;5093849;28;20044;-72
2021/01/14 14:08:17;;;;;;;29.10;17.73;;;153.90;1587.20;;;;;;5094031;28;20385;-71
2021/01/14 14:10:44;;;;;;;171.35;92.68;;;153.90;1587.20;;;;;;5095476;28;20039;-69
2021/01/14 14:13:11;;;;;;;103.72;58.10;;;153.90;1587.20;;;;;;5094633;28;20024;-71
2021/01/14 14:15:37;;;;;;;80.85;45.78;;;153.80;1587.20;;;;;;5093024;28;20066;-70
2021/01/14 14:18:02;;;;;;;66.32;35.65;;;153.80;1587.20;;;;;;5093449;28;20020;-69
2021/01/14 14:20:28;;;;;;;40.30;22.33;;;153.70;1612.80;;;;;;5093341;28;20465;-72
2021/01/14 14:22:54;;;;;;;31.30;16.73;;;153.60;1587.20;;;;;;5093572;28;20457;-71
2021/01/14 14:25:20;;;;;;;27.67;13.93;;;153.60;1612.80;;;;;;5093730;28;20380;-71
2021/01/14 14:27:45;;;;;;;21.10;12.23;;;153.60;1612.80;;;;;;5093048;28;20028;-70
2021/01/14 14:30:14;;;;;;;18.23;10.35;;;128.90;1612.80;;;;;;5093552;28;20481;-71
2021/01/14 14:32:43;;;;;;;41.20;22.98;;;128.90;1612.80;;;;;;5090549;28;20381;-71
2021/01/14 14:35:09;;;;;;;118.85;66.30;;;128.80;1612.80;;;;;;5093238;28;20024;-71
2021/01/14 14:37:35;;;;;;;82.63;46.75;;;128.80;1638.40;;;;;;5095550;28;20054;-71
2021/01/14 14:40:01;;;;;;;80.15;44.50;;;128.70;1638.40;;;;;;5095229;28;20107;-71
2021/01/14 14:42:29;;;;;;;56.00;31.00;;;128.60;1638.40;;;;;;5092657;28;20024;-71
2021/01/14 14:44:55;;;;;;;45.13;28.40;;;128.60;1664.00;;;;;;5092667;28;20102;-71
2021/01/14 14:47:21;;;;;;;41.15;26.52;;;128.50;1664.00;;;;;;5092679;28;20109;-70
2021/01/14 14:49:46;;;;;;;38.53;25.02;;;128.40;1664.00;;;;;;5092641;28;20474;-70
2021/01/14 14:52:12;;;;;;;37.30;22.52;;;128.40;1664.00;;;;;;5093004;28;20016;-71
2021/01/14 14:54:38;;;;;;;39.17;22.42;;;128.30;1664.00;;;;;;5092374;28;20374;-69
2021/01/14 14:57:04;;;;;;;41.28;23.67;;;128.30;1689.60;;;;;;5092755;28;20024;-72
2021/01/14 14:59:29;;;;;;;44.83;24.75;;;128.30;1689.60;;;;;;5092656;28;20399;-72
2021/01/14 15:01:55;;;;;;;38.00;22.52;;;128.20;1689.60;;;;;;5092667;28;20020;-72
2021/01/14 15:04:21;;;;;;;40.22;23.50;;;128.20;1689.60;;;;;;5098727;28;20032;-70
2021/01/14 15:06:52;;;;;;;41.38;24.75;;;128.20;1689.60;;;;;;5094651;28;20017;-70
2021/01/14 15:09:18;;;;;;;37.78;22.05;;;128.20;1715.20;;;;;;5093857;28;20028;-71
2021/01/14 15:11:44;;;;;;;31.98;19.05;;;128.20;1715.20;;;;;;5094720;28;20027;-71
2021/01/14 15:14:10;;;;;;;29.00;16.38;;;128.10;1715.20;;;;;;5092232;28;20024;-71
2021/01/14 15:16:36;;;;;;;38.30;21.92;;;128.10;1715.20;;;;;;5092152;28;20369;-72
2021/01/14 15:19:02;;;;;;;32.08;16.73;;;128.10;1715.20;;;;;;5092370;28;20785;-71
2021/01/14 15:21:27;;;;;;;136.98;77.75;;;128.10;1715.20;;;;;;5106296;28;20076;-72